This is the latest recevied weather packets stored in our database for station/object G7GQA-4. If no packets are shown the sender has not sent any weather packets the latest 10 day(s).
| Time | Temp. | Humidity | Pressure | Rain* | Wind** | Luminosity | Snow |
|---|---|---|---|---|---|---|---|
| 1777624523 | 19.44° C | 48% | - | 0 mm | - | 457 W/m² | - |
| 1777623923 | 18.33° C | 48% | - | 0 mm | - | 425 W/m² | - |
| 1777623323 | 18.33° C | 48% | - | 0 mm | - | 396 W/m² | - |
| 1777622723 | 17.22° C | 48% | - | 0 mm | - | 380 W/m² | - |
| 1777622123 | 15.56° C | 52% | - | 0 mm | - | 284 W/m² | - |
| 1777621523 | 15.56° C | 53% | - | 0 mm | - | 137 W/m² | - |
| 1777620923 | 15.56° C | 52% | - | 0 mm | - | 125 W/m² | - |
| 1777620323 | 15.56° C | 53% | - | 0 mm | - | 169 W/m² | - |
| 1777619723 | 15° C | 53% | - | 0 mm | - | 167 W/m² | - |
| 1777619123 | 15° C | 52% | - | 0 mm | - | 179 W/m² | - |
| 1777618522 | 15.56° C | 49% | - | 0 mm | - | 260 W/m² | - |
| 1777617922 | 15.56° C | 48% | - | 0 mm | - | 234 W/m² | - |
| 1777617322 | 14.44° C | 49% | - | 0 mm | - | 201 W/m² | - |
| 1777616723 | 13.89° C | 51% | - | 0 mm | - | 134 W/m² | - |
| 1777616123 | 13.33° C | 52% | - | 0 mm | - | 106 W/m² | - |
| 1777615522 | 13.89° C | 51% | - | 0 mm | - | 103 W/m² | - |
| 1777614922 | 13.33° C | 51% | - | 0 mm | - | 82 W/m² | - |
| 1777614322 | 13.33° C | 52% | - | 0 mm | - | 56 W/m² | - |
| 1777613722 | 12.78° C | 54% | - | 0 mm | - | 42 W/m² | - |
| 1777613122 | 12.22° C | 55% | - | 0 mm | - | 30 W/m² | - |
| 1777612522 | 11.67° C | 56% | - | 0 mm | - | 24 W/m² | - |
| 1777611922 | 11.67° C | 57% | - | 0 mm | - | 18 W/m² | - |
| 1777611322 | 11.67° C | 58% | - | 0 mm | - | 11 W/m² | - |
| 1777610722 | 11.11° C | 58% | - | 0 mm | - | 6 W/m² | - |
| 1777610122 | 11.11° C | 59% | - | 0 mm | - | 2 W/m² | - |
* Rain latest hour (hover to see other rain measurements)
** Current wind speed in m/s (hover to see current wind gust speed)